Aviation Digital Data Service (ADDS)

Output produced by METARs form (0500 UTC 16 February 2019)
found at http://www.aviationweather.gov/metar/data/
 
Forecast for: ESSA (STOCKHOLM/ARLAND, SE)
Text: TAF ESSA 152330Z 1600/1624 26012KT CAVOK
Forecast period: 0000 UTC 16 February 2019 to 0000 UTC 17 February 2019
Forecast type: FROM: standard forecast or significant change
Winds: from the W (260 degrees) at 14 MPH (12 knots; 6.2 m/s)
Visibility: 6 or more miles 10+ km)
Ceiling: unknown
Clouds: missing
Weather: NSW  (no significant weather)